Time;durP1;ratioP1;P1;durP2;ratioP2;P2;SDS_P1;SDS_P2;PMS_P1;PMS_P2;Temp;Humidity;BMP_temperature;BMP_pressure;BME280_temperature;BME280_humidity;BME280_pressure;Samples;Min_cycle;Max_cycle;Signal;HPM_P1;HPM_P2
2023/12/13 00:00:24;;;;;;;10.38;3.33;;;;;;;;;;5019264;28;20029;-76
2023/12/13 00:02:50;;;;;;;7.85;3.22;;;;;;;;;;5036757;28;20032;-77
2023/12/13 00:05:15;;;;;;;10.10;3.17;;;;;;;;;;5036814;28;20049;-77
2023/12/13 00:07:40;;;;;;;8.23;3.42;;;;;;;;;;5019211;28;20263;-77
2023/12/13 00:10:06;;;;;;;8.23;3.10;;;;;;;;;;5036993;28;20083;-77
2023/12/13 00:12:31;;;;;;;10.10;3.65;;;;;;;;;;5018902;28;20029;-77
2023/12/13 00:14:56;;;;;;;11.20;3.43;;;;;;;;;;5036678;28;20031;-77
2023/12/13 00:17:21;;;;;;;6.97;3.40;;;;;;;;;;5018718;28;20361;-77
2023/12/13 00:19:47;;;;;;;10.23;3.47;;;;;;;;;;5018677;28;20301;-78
2023/12/13 00:22:12;;;;;;;13.48;4.05;;;;;;;;;;5036360;28;20290;-77
2023/12/13 00:24:37;;;;;;;13.13;3.80;;;;;;;;;;5036343;28;20017;-77
2023/12/13 00:27:03;;;;;;;11.70;3.95;;;;;;;;;;5036778;28;20384;-77
2023/12/13 00:29:28;;;;;;;10.50;4.20;;;;;;;;;;5018869;28;20579;-77
2023/12/13 00:31:53;;;;;;;9.93;3.90;;;;;;;;;;5036480;28;20026;-77
2023/12/13 00:34:19;;;;;;;9.20;4.10;;;;;;;;;;5036283;28;20258;-77
2023/12/13 00:36:44;;;;;;;7.70;3.47;;;;;;;;;;5018275;28;20377;-76
2023/12/13 00:39:09;;;;;;;11.83;4.43;;;;;;;;;;5036334;28;20040;-77
2023/12/13 00:41:35;;;;;;;8.20;3.72;;;;;;;;;;5036091;28;20266;-77
2023/12/13 00:44:00;;;;;;;11.43;3.83;;;;;;;;;;5018293;28;20025;-76
2023/12/13 00:46:26;;;;;;;11.68;3.28;;;;;;;;;;5035950;28;20071;-77
2023/12/13 00:48:52;;;;;;;12.25;4.55;;;;;;;;;;5018626;28;20032;-78
2023/12/13 00:51:19;;;;;;;9.35;3.92;;;;;;;;;;5036474;28;20069;-76
2023/12/13 00:53:44;;;;;;;9.35;3.70;;;;;;;;;;5035755;28;20140;-77
2023/12/13 00:56:09;;;;;;;10.20;4.03;;;;;;;;;;5018155;28;20463;-77
2023/12/13 00:58:35;;;;;;;9.55;4.25;;;;;;;;;;5034557;28;20488;-77
2023/12/13 01:01:00;;;;;;;8.43;3.90;;;;;;;;;;5035809;28;20037;-77
2023/12/13 01:03:26;;;;;;;10.02;3.28;;;;;;;;;;5035629;28;20324;-77
2023/12/13 01:05:51;;;;;;;8.55;4.22;;;;;;;;;;5035550;28;20087;-77
2023/12/13 01:08:17;;;;;;;9.13;3.97;;;;;;;;;;5035884;28;20052;-77
2023/12/13 01:10:42;;;;;;;8.25;3.53;;;;;;;;;;5036710;28;20025;-78
2023/12/13 01:13:07;;;;;;;10.80;4.18;;;;;;;;;;5037125;28;20552;-78
2023/12/13 01:15:33;;;;;;;9.87;4.70;;;;;;;;;;5019869;28;20029;-78
2023/12/13 01:17:58;;;;;;;8.52;4.20;;;;;;;;;;5036783;28;20261;-78
2023/12/13 01:20:23;;;;;;;11.00;5.40;;;;;;;;;;5035443;28;20025;-77
2023/12/13 01:22:48;;;;;;;10.48;4.43;;;;;;;;;;5035314;28;20263;-77
2023/12/13 01:25:13;;;;;;;7.37;4.07;;;;;;;;;;5017691;28;20025;-77
2023/12/13 01:27:39;;;;;;;6.97;3.57;;;;;;;;;;5017414;28;20346;-77
2023/12/13 01:30:05;;;;;;;11.10;4.30;;;;;;;;;;5035784;28;20287;-77
2023/12/13 01:32:30;;;;;;;8.80;4.13;;;;;;;;;;5017846;28;20301;-77
2023/12/13 01:34:55;;;;;;;7.97;3.87;;;;;;;;;;5035851;28;20093;-77
2023/12/13 01:37:20;;;;;;;15.07;4.40;;;;;;;;;;5035655;28;20777;-77
2023/12/13 01:39:45;;;;;;;8.83;3.90;;;;;;;;;;5035513;28;20293;-77
2023/12/13 01:42:11;;;;;;;10.30;4.30;;;;;;;;;;5035541;28;20290;-77
2023/12/13 01:44:38;;;;;;;9.00;4.10;;;;;;;;;;5034974;28;20290;-77
2023/12/13 01:47:03;;;;;;;11.57;4.75;;;;;;;;;;5035539;28;20626;-78
2023/12/13 01:49:28;;;;;;;14.95;4.70;;;;;;;;;;5034857;28;20025;-76
2023/12/13 01:51:53;;;;;;;10.43;4.85;;;;;;;;;;5035220;28;20033;-77
2023/12/13 01:54:19;;;;;;;8.13;4.20;;;;;;;;;;5034794;28;20116;-77
2023/12/13 01:56:45;;;;;;;9.82;4.20;;;;;;;;;;5034446;28;20029;-77
2023/12/13 01:59:12;;;;;;;10.93;4.65;;;;;;;;;;5034951;28;20033;-77
2023/12/13 02:01:38;;;;;;;11.82;5.18;;;;;;;;;;5035153;28;20029;-78
2023/12/13 02:04:04;;;;;;;9.38;4.35;;;;;;;;;;5017078;28;20075;-78
2023/12/13 02:06:29;;;;;;;10.57;4.70;;;;;;;;;;5035331;28;20064;-77
2023/12/13 02:08:55;;;;;;;10.55;4.68;;;;;;;;;;5034527;28;20374;-77
2023/12/13 02:11:20;;;;;;;12.18;5.20;;;;;;;;;;5034608;28;20045;-77
2023/12/13 02:13:45;;;;;;;10.30;4.65;;;;;;;;;;5035283;28;20025;-77
2023/12/13 02:16:10;;;;;;;10.13;4.15;;;;;;;;;;5035291;28;20033;-77
2023/12/13 02:18:36;;;;;;;10.43;4.60;;;;;;;;;;5034788;28;20029;-77
2023/12/13 02:21:01;;;;;;;13.25;5.32;;;;;;;;;;5034913;28;20295;-77
2023/12/13 02:23:27;;;;;;;10.82;4.85;;;;;;;;;;5017005;28;20025;-78
2023/12/13 02:26:00;;;;;;;9.57;5.05;;;;;;;;;;5034742;28;20040;-78
2023/12/13 02:28:26;;;;;;;10.80;5.05;;;;;;;;;;5034402;28;20029;-78
2023/12/13 02:30:56;;;;;;;11.55;4.80;;;;;;;;;;5034565;28;20058;-77
2023/12/13 02:33:25;;;;;;;12.93;4.70;;;;;;;;;;5034268;28;20116;-77
2023/12/13 02:35:52;;;;;;;10.10;4.80;;;;;;;;;;5016658;28;20025;-77
2023/12/13 02:38:17;;;;;;;13.63;4.93;;;;;;;;;;5034543;28;20029;-77
2023/12/13 02:40:43;;;;;;;11.40;4.80;;;;;;;;;;5034033;28;20025;-78
2023/12/13 02:43:08;;;;;;;12.13;5.80;;;;;;;;;;5016386;28;20034;-78
2023/12/13 02:45:33;;;;;;;13.52;5.82;;;;;;;;;;5034451;28;20266;-78
2023/12/13 02:47:59;;;;;;;11.45;5.45;;;;;;;;;;5034250;28;20120;-77
2023/12/13 02:50:25;;;;;;;10.18;5.53;;;;;;;;;;5033848;28;20035;-78
2023/12/13 02:52:50;;;;;;;20.42;5.93;;;;;;;;;;5033929;28;20100;-78
2023/12/13 02:55:15;;;;;;;17.33;6.00;;;;;;;;;;5017491;28;20025;-78
2023/12/13 02:57:41;;;;;;;11.02;5.40;;;;;;;;;;5017283;28;20509;-79
2023/12/13 03:00:06;;;;;;;11.93;5.50;;;;;;;;;;5035410;28;20428;-78
2023/12/13 03:02:32;;;;;;;12.45;5.63;;;;;;;;;;5018486;28;20654;-78
2023/12/13 03:04:59;;;;;;;13.13;5.40;;;;;;;;;;5035347;28;20107;-76
2023/12/13 03:07:24;;;;;;;11.48;5.60;;;;;;;;;;5035496;28;20033;-78
2023/12/13 03:09:50;;;;;;;14.48;5.60;;;;;;;;;;5033941;28;20037;-78
2023/12/13 03:12:15;;;;;;;11.50;5.97;;;;;;;;;;5034521;28;20071;-78
2023/12/13 03:14:40;;;;;;;10.40;5.25;;;;;;;;;;5034425;28;20025;-78
2023/12/13 03:17:06;;;;;;;11.13;5.68;;;;;;;;;;5034456;28;20051;-78
2023/12/13 03:19:31;;;;;;;9.13;5.25;;;;;;;;;;5033962;28;20029;-77
2023/12/13 03:21:56;;;;;;;10.15;5.15;;;;;;;;;;5033685;28;20453;-77
2023/12/13 03:24:22;;;;;;;12.40;5.03;;;;;;;;;;5034029;28;20021;-78
2023/12/13 03:26:47;;;;;;;10.68;5.68;;;;;;;;;;5034782;28;20432;-78
2023/12/13 03:29:12;;;;;;;9.73;5.20;;;;;;;;;;5034335;28;20047;-78
2023/12/13 03:31:37;;;;;;;9.95;5.07;;;;;;;;;;5035189;28;20435;-78
2023/12/13 03:34:03;;;;;;;11.15;5.32;;;;;;;;;;5034598;28;20041;-78
2023/12/13 03:36:28;;;;;;;10.27;4.93;;;;;;;;;;5034541;28;20546;-78
2023/12/13 03:38:53;;;;;;;12.48;5.47;;;;;;;;;;5034749;28;20741;-77
2023/12/13 03:41:19;;;;;;;10.23;5.30;;;;;;;;;;5034443;28;20436;-78
2023/12/13 03:43:44;;;;;;;8.07;5.10;;;;;;;;;;5034346;28;20602;-78
2023/12/13 03:46:09;;;;;;;9.77;5.28;;;;;;;;;;5033876;28;20075;-77
2023/12/13 03:48:34;;;;;;;8.13;4.40;;;;;;;;;;5033722;28;20017;-78
2023/12/13 03:51:01;;;;;;;9.68;4.75;;;;;;;;;;5033648;28;20353;-78
2023/12/13 03:53:26;;;;;;;10.90;4.35;;;;;;;;;;5033829;28;20480;-77
2023/12/13 03:55:51;;;;;;;10.50;4.70;;;;;;;;;;5033957;28;20051;-77
2023/12/13 03:58:17;;;;;;;9.53;4.80;;;;;;;;;;5039164;28;20033;-77
2023/12/13 04:00:42;;;;;;;11.63;4.23;;;;;;;;;;5022200;28;20808;-78
2023/12/13 04:03:07;;;;;;;8.83;4.37;;;;;;;;;;5023761;28;20263;-77
2023/12/13 04:05:32;;;;;;;6.77;4.30;;;;;;;;;;5015258;28;20812;-78
2023/12/13 04:07:58;;;;;;;6.57;4.37;;;;;;;;;;5015115;28;20744;-78
2023/12/13 04:10:23;;;;;;;6.80;4.73;;;;;;;;;;5033099;28;20298;-77
2023/12/13 04:12:48;;;;;;;7.28;4.22;;;;;;;;;;5033069;28;20741;-78
2023/12/13 04:15:13;;;;;;;9.15;5.13;;;;;;;;;;5032985;28;20033;-78
2023/12/13 04:17:39;;;;;;;8.60;3.63;;;;;;;;;;5015515;28;20033;-78
2023/12/13 04:20:05;;;;;;;5.70;3.97;;;;;;;;;;5032746;28;20278;-76
2023/12/13 04:22:30;;;;;;;7.93;3.72;;;;;;;;;;5033440;28;20273;-77
2023/12/13 04:24:55;;;;;;;5.53;3.70;;;;;;;;;;5033948;28;20041;-78
2023/12/13 04:27:21;;;;;;;6.37;4.00;;;;;;;;;;5033365;28;20277;-78
2023/12/13 04:29:46;;;;;;;5.93;3.80;;;;;;;;;;5033862;28;20271;-78
2023/12/13 04:32:11;;;;;;;4.67;3.30;;;;;;;;;;5016026;28;20437;-78
2023/12/13 04:34:37;;;;;;;6.60;3.60;;;;;;;;;;5036916;28;20695;-78
2023/12/13 04:37:02;;;;;;;6.35;3.78;;;;;;;;;;5019356;28;20084;-77
2023/12/13 04:39:27;;;;;;;6.03;3.33;;;;;;;;;;5019237;28;20416;-77
2023/12/13 04:41:52;;;;;;;5.93;3.63;;;;;;;;;;5020917;28;20017;-78
2023/12/13 04:44:18;;;;;;;6.80;3.20;;;;;;;;;;5037330;28;20308;-77
2023/12/13 04:46:43;;;;;;;4.90;3.22;;;;;;;;;;5037139;28;20321;-77
2023/12/13 04:49:08;;;;;;;5.78;3.25;;;;;;;;;;5019757;28;20029;-78
2023/12/13 04:51:33;;;;;;;6.47;3.55;;;;;;;;;;5039398;28;20025;-78
2023/12/13 04:53:59;;;;;;;7.83;3.83;;;;;;;;;;5020218;28;20041;-78
2023/12/13 04:56:24;;;;;;;5.47;3.53;;;;;;;;;;5036626;28;20312;-77
2023/12/13 04:58:50;;;;;;;6.28;3.50;;;;;;;;;;5037038;28;20259;-78
2023/12/13 05:01:15;;;;;;;8.35;3.67;;;;;;;;;;5037020;28;20036;-77
2023/12/13 05:03:40;;;;;;;8.50;3.75;;;;;;;;;;5036166;28;20562;-77
2023/12/13 05:06:05;;;;;;;5.70;3.70;;;;;;;;;;5036056;28;20096;-78
2023/12/13 05:08:33;;;;;;;7.30;3.92;;;;;;;;;;5037036;28;20338;-78
2023/12/13 05:10:59;;;;;;;5.75;3.92;;;;;;;;;;5036790;28;20076;-77
2023/12/13 05:13:25;;;;;;;6.68;4.10;;;;;;;;;;5037213;28;20060;-75
2023/12/13 05:15:50;;;;;;;9.02;4.50;;;;;;;;;;5017855;28;20334;-77
2023/12/13 05:18:15;;;;;;;8.60;4.53;;;;;;;;;;5036154;28;20024;-77
2023/12/13 05:20:40;;;;;;;8.40;4.45;;;;;;;;;;5039763;28;20370;-78
2023/12/13 05:23:06;;;;;;;8.70;4.53;;;;;;;;;;5021564;28;20026;-77
2023/12/13 05:25:32;;;;;;;7.50;4.00;;;;;;;;;;5037251;28;20065;-78
2023/12/13 05:27:57;;;;;;;10.38;4.28;;;;;;;;;;5036386;28;20018;-77
2023/12/13 05:30:23;;;;;;;6.97;4.70;;;;;;;;;;5040519;28;20097;-78
2023/12/13 05:32:50;;;;;;;9.50;4.90;;;;;;;;;;5036933;28;20032;-78
2023/12/13 05:35:16;;;;;;;9.07;4.38;;;;;;;;;;5036331;28;20033;-78
2023/12/13 05:37:41;;;;;;;6.43;4.67;;;;;;;;;;5036516;28;20411;-78
2023/12/13 05:40:07;;;;;;;7.28;4.05;;;;;;;;;;5036219;28;20712;-79
2023/12/13 05:42:45;;;;;;;9.00;4.63;;;;;;;;;;5038983;28;20079;-83
2023/12/13 05:45:11;;;;;;;9.02;4.75;;;;;;;;;;5039673;28;20451;-79
2023/12/13 05:47:36;;;;;;;8.90;4.82;;;;;;;;;;5039369;28;20025;-78
2023/12/13 05:50:01;;;;;;;5.60;4.05;;;;;;;;;;5038876;28;20105;-79
2023/12/13 05:52:27;;;;;;;8.30;4.60;;;;;;;;;;5038493;28;20025;-78
2023/12/13 05:55:06;;;;;;;6.93;4.40;;;;;;;;;;5020334;28;20034;-79
2023/12/13 05:57:31;;;;;;;7.97;4.60;;;;;;;;;;5022038;28;20052;-77
2023/12/13 05:59:57;;;;;;;9.55;4.70;;;;;;;;;;5021380;28;20029;-79
2023/12/13 06:02:22;;;;;;;6.80;4.50;;;;;;;;;;5039815;28;20037;-78
2023/12/13 06:04:48;;;;;;;8.13;5.05;;;;;;;;;;5040788;28;20021;-78
2023/12/13 06:07:13;;;;;;;8.98;5.57;;;;;;;;;;5040375;28;20104;-78
2023/12/13 06:09:40;;;;;;;9.25;5.03;;;;;;;;;;5020339;28;20025;-78
2023/12/13 06:12:06;;;;;;;10.02;5.45;;;;;;;;;;5019832;28;20025;-79
2023/12/13 06:14:31;;;;;;;7.30;5.00;;;;;;;;;;5037024;28;20404;-79
2023/12/13 06:16:57;;;;;;;8.07;4.83;;;;;;;;;;5036089;28;20018;-78
2023/12/13 06:19:24;;;;;;;8.05;4.93;;;;;;;;;;5035769;28;20598;-79
2023/12/13 06:21:49;;;;;;;7.25;4.53;;;;;;;;;;5036425;28;20026;-79
2023/12/13 06:24:15;;;;;;;10.15;4.97;;;;;;;;;;5036792;28;20040;-78
2023/12/13 06:26:40;;;;;;;7.17;4.37;;;;;;;;;;5036317;28;20056;-79
2023/12/13 06:29:05;;;;;;;11.55;5.03;;;;;;;;;;5035284;28;20254;-78
2023/12/13 06:31:30;;;;;;;8.20;4.83;;;;;;;;;;5036852;28;20029;-78
2023/12/13 06:33:56;;;;;;;10.68;5.00;;;;;;;;;;5037856;28;20259;-78
2023/12/13 06:36:21;;;;;;;11.73;4.85;;;;;;;;;;5019730;28;20076;-78
2023/12/13 06:38:47;;;;;;;7.40;4.85;;;;;;;;;;5018828;28;20048;-78
2023/12/13 06:41:12;;;;;;;9.68;5.15;;;;;;;;;;5017444;28;20112;-78
2023/12/13 06:43:37;;;;;;;7.82;5.18;;;;;;;;;;5036327;28;20056;-77
2023/12/13 06:46:03;;;;;;;8.45;4.95;;;;;;;;;;5018641;28;20045;-77
2023/12/13 06:48:29;;;;;;;8.68;4.80;;;;;;;;;;5035626;28;20439;-78
2023/12/13 06:50:55;;;;;;;9.60;5.03;;;;;;;;;;5017498;28;20026;-77
2023/12/13 06:53:21;;;;;;;8.68;4.80;;;;;;;;;;5035906;28;20052;-78
2023/12/13 06:55:46;;;;;;;7.07;4.65;;;;;;;;;;5018768;28;20512;-74
2023/12/13 06:58:11;;;;;;;9.20;4.60;;;;;;;;;;5033319;28;20033;-75
2023/12/13 07:00:37;;;;;;;8.38;4.78;;;;;;;;;;5031767;28;20439;-76
2023/12/13 07:03:02;;;;;;;6.97;4.47;;;;;;;;;;5032423;28;20127;-80
2023/12/13 07:05:27;;;;;;;12.50;5.22;;;;;;;;;;5016048;28;20481;-74
2023/12/13 07:07:52;;;;;;;9.43;4.73;;;;;;;;;;5032229;28;20025;-76
2023/12/13 07:10:18;;;;;;;9.20;5.18;;;;;;;;;;5032583;28;20263;-75
2023/12/13 07:12:43;;;;;;;6.85;4.47;;;;;;;;;;5032781;28;20099;-76
2023/12/13 07:15:10;;;;;;;7.63;4.95;;;;;;;;;;5034209;28;20048;-79
2023/12/13 07:17:35;;;;;;;8.25;5.20;;;;;;;;;;5033449;28;20037;-75
2023/12/13 07:20:01;;;;;;;7.80;5.07;;;;;;;;;;5032900;28;20040;-75
2023/12/13 07:22:26;;;;;;;8.10;5.18;;;;;;;;;;5032955;28;20342;-75
2023/12/13 07:24:51;;;;;;;7.57;4.53;;;;;;;;;;5032614;28;20029;-74
2023/12/13 07:27:16;;;;;;;8.10;4.82;;;;;;;;;;5032753;28;20273;-76
2023/12/13 07:29:42;;;;;;;7.80;5.17;;;;;;;;;;5032906;28;20369;-77
2023/12/13 07:32:08;;;;;;;6.93;4.78;;;;;;;;;;5032485;28;20672;-75
2023/12/13 07:34:34;;;;;;;8.85;4.78;;;;;;;;;;5032615;28;20040;-75
2023/12/13 07:37:00;;;;;;;7.40;5.00;;;;;;;;;;5032794;28;20032;-76
2023/12/13 07:39:30;;;;;;;6.72;4.20;;;;;;;;;;5033531;28;20087;-84
2023/12/13 07:41:56;;;;;;;7.97;4.75;;;;;;;;;;5033184;28;20029;-75
2023/12/13 07:44:21;;;;;;;7.53;4.82;;;;;;;;;;5032886;28;20029;-75
2023/12/13 07:46:46;;;;;;;7.20;4.20;;;;;;;;;;5015014;28;20029;-76
2023/12/13 07:49:12;;;;;;;7.13;4.50;;;;;;;;;;5015126;28;20250;-76
2023/12/13 07:51:37;;;;;;;6.15;4.05;;;;;;;;;;5032687;28;20246;-76
2023/12/13 07:54:02;;;;;;;9.27;4.83;;;;;;;;;;5033640;28;20040;-75
2023/12/13 07:56:31;;;;;;;5.93;4.22;;;;;;;;;;5032533;28;20275;-75
2023/12/13 07:58:56;;;;;;;7.57;4.45;;;;;;;;;;5032650;28;20021;-76
2023/12/13 08:01:22;;;;;;;6.88;4.85;;;;;;;;;;5032475;28;20451;-75
2023/12/13 08:03:48;;;;;;;6.57;3.80;;;;;;;;;;5032270;28;20036;-76
2023/12/13 08:06:13;;;;;;;8.75;4.47;;;;;;;;;;5032515;28;20022;-76
2023/12/13 08:08:41;;;;;;;5.50;4.05;;;;;;;;;;5017842;28;20112;-76
2023/12/13 08:11:07;;;;;;;7.00;4.45;;;;;;;;;;5036608;28;20025;-75
2023/12/13 08:13:33;;;;;;;7.55;4.43;;;;;;;;;;5018556;28;20071;-75
2023/12/13 08:15:59;;;;;;;6.22;3.97;;;;;;;;;;5036440;28;20488;-75
2023/12/13 08:18:24;;;;;;;6.80;4.32;;;;;;;;;;5036911;28;20439;-75
2023/12/13 08:20:49;;;;;;;6.97;4.20;;;;;;;;;;5036675;28;20037;-75
2023/12/13 08:23:15;;;;;;;6.63;4.43;;;;;;;;;;5036381;28;20273;-75
2023/12/13 08:25:41;;;;;;;5.90;4.07;;;;;;;;;;5036154;28;20068;-75
2023/12/13 08:28:06;;;;;;;5.00;3.50;;;;;;;;;;5036106;28;20290;-76
2023/12/13 08:30:32;;;;;;;5.68;3.65;;;;;;;;;;5036028;28;20053;-75
2023/12/13 08:32:57;;;;;;;5.50;4.07;;;;;;;;;;5018197;28;20033;-75
2023/12/13 08:35:22;;;;;;;5.73;3.63;;;;;;;;;;5018060;28;20263;-75
2023/12/13 08:37:47;;;;;;;7.17;3.97;;;;;;;;;;5035820;28;20293;-76
2023/12/13 08:40:12;;;;;;;6.30;3.80;;;;;;;;;;5035716;28;20353;-76
2023/12/13 08:42:38;;;;;;;6.35;4.03;;;;;;;;;;5035782;28;20293;-76
2023/12/13 08:45:05;;;;;;;5.57;3.60;;;;;;;;;;5017833;28;20021;-76
2023/12/13 08:47:30;;;;;;;4.75;3.47;;;;;;;;;;5018175;28;20263;-76
2023/12/13 08:49:55;;;;;;;7.45;3.90;;;;;;;;;;5036069;28;20389;-76
2023/12/13 08:52:21;;;;;;;6.13;3.83;;;;;;;;;;5035857;28;20025;-76
2023/12/13 08:54:49;;;;;;;6.18;3.80;;;;;;;;;;5035339;28;20025;-76
2023/12/13 08:57:14;;;;;;;5.68;3.40;;;;;;;;;;5017599;28;20028;-75
2023/12/13 08:59:39;;;;;;;5.83;3.57;;;;;;;;;;5035629;28;20026;-75
2023/12/13 09:02:05;;;;;;;7.30;3.90;;;;;;;;;;5017701;28;20305;-76
2023/12/13 09:04:30;;;;;;;8.90;4.68;;;;;;;;;;5035586;28;20022;-76
2023/12/13 09:06:55;;;;;;;7.90;4.30;;;;;;;;;;5035474;28;20033;-75
2023/12/13 09:09:21;;;;;;;5.93;3.95;;;;;;;;;;5018415;28;20442;-75
2023/12/13 09:11:47;;;;;;;6.75;4.32;;;;;;;;;;5035200;28;20033;-75
2023/12/13 09:14:13;;;;;;;7.60;4.25;;;;;;;;;;5035556;28;20083;-75
2023/12/13 09:16:39;;;;;;;6.57;4.05;;;;;;;;;;5035321;28;20029;-76
2023/12/13 09:19:05;;;;;;;6.90;4.25;;;;;;;;;;5034505;28;20021;-75
2023/12/13 09:21:30;;;;;;;10.75;4.43;;;;;;;;;;5035156;28;20494;-75
2023/12/13 09:23:55;;;;;;;7.60;4.00;;;;;;;;;;5035062;28;20093;-76
2023/12/13 09:26:20;;;;;;;5.50;3.85;;;;;;;;;;5035567;28;20305;-76
2023/12/13 09:28:46;;;;;;;6.70;4.47;;;;;;;;;;5035010;28;20095;-75
2023/12/13 09:31:11;;;;;;;7.65;3.72;;;;;;;;;;5034813;28;20404;-76
2023/12/13 09:33:37;;;;;;;8.20;4.05;;;;;;;;;;5034815;28;20025;-76
2023/12/13 09:36:03;;;;;;;7.88;3.88;;;;;;;;;;5034755;28;20029;-75
2023/12/13 09:38:29;;;;;;;5.43;3.55;;;;;;;;;;5016009;28;20025;-76
2023/12/13 09:40:54;;;;;;;6.20;3.97;;;;;;;;;;5034404;28;20028;-77
2023/12/13 09:43:22;;;;;;;6.15;3.63;;;;;;;;;;5034591;28;20432;-75
2023/12/13 09:45:50;;;;;;;4.72;3.22;;;;;;;;;;5016777;28;20087;-76
2023/12/13 09:48:21;;;;;;;6.65;3.47;;;;;;;;;;5034666;28;20018;-75
2023/12/13 09:50:51;;;;;;;6.20;3.55;;;;;;;;;;5035040;28;20366;-74
2023/12/13 09:53:16;;;;;;;5.30;3.33;;;;;;;;;;5037717;28;20072;-76
2023/12/13 09:55:43;;;;;;;4.68;3.30;;;;;;;;;;5034714;28;20030;-76
2023/12/13 09:58:08;;;;;;;5.85;3.47;;;;;;;;;;5034554;28;20021;-75
2023/12/13 10:00:33;;;;;;;6.73;3.30;;;;;;;;;;5034772;28;20411;-75
2023/12/13 10:02:58;;;;;;;6.32;3.17;;;;;;;;;;5035124;28;20649;-76
2023/12/13 10:05:26;;;;;;;5.00;3.28;;;;;;;;;;5034246;28;20029;-75
2023/12/13 10:08:01;;;;;;;5.57;3.20;;;;;;;;;;5034155;28;20028;-75
2023/12/13 10:10:29;;;;;;;8.20;3.38;;;;;;;;;;5016814;28;20408;-75
2023/12/13 10:12:54;;;;;;;4.65;3.00;;;;;;;;;;5034751;28;20028;-74
2023/12/13 10:15:20;;;;;;;6.47;3.45;;;;;;;;;;5034094;28;20029;-74
2023/12/13 10:17:45;;;;;;;6.93;3.38;;;;;;;;;;5033777;28;20452;-74
2023/12/13 10:20:10;;;;;;;5.70;3.20;;;;;;;;;;5034079;28;20028;-75
2023/12/13 10:22:36;;;;;;;8.68;3.42;;;;;;;;;;5033966;28;20290;-75
2023/12/13 10:25:04;;;;;;;6.10;3.67;;;;;;;;;;5016250;28;20124;-76
2023/12/13 10:27:31;;;;;;;9.00;5.22;;;;;;;;;;5016840;28;20051;-74
2023/12/13 10:29:56;;;;;;;6.72;3.83;;;;;;;;;;5034676;28;20026;-75
2023/12/13 10:32:22;;;;;;;5.55;3.50;;;;;;;;;;5034972;28;20029;-74
2023/12/13 10:34:47;;;;;;;7.30;3.70;;;;;;;;;;5016469;28;20018;-75
2023/12/13 10:37:17;;;;;;;5.18;3.35;;;;;;;;;;5017769;28;20108;-78
2023/12/13 10:39:44;;;;;;;5.88;3.50;;;;;;;;;;5018512;28;20029;-77
2023/12/13 10:42:11;;;;;;;7.45;3.30;;;;;;;;;;5016704;28;20025;-77
2023/12/13 10:44:37;;;;;;;5.68;3.60;;;;;;;;;;5034092;28;20056;-77
2023/12/13 10:47:08;;;;;;;9.57;3.47;;;;;;;;;;5034539;28;20028;-77
2023/12/13 10:49:35;;;;;;;5.78;3.40;;;;;;;;;;5034919;28;20025;-78
2023/12/13 10:52:01;;;;;;;6.53;3.30;;;;;;;;;;5034446;28;20040;-76
2023/12/13 10:54:27;;;;;;;4.93;2.85;;;;;;;;;;5034000;28;20025;-78
2023/12/13 10:56:55;;;;;;;5.95;3.38;;;;;;;;;;5017028;28;20025;-77
2023/12/13 10:59:21;;;;;;;4.57;2.88;;;;;;;;;;5034030;28;20032;-77
2023/12/13 11:01:48;;;;;;;5.05;3.58;;;;;;;;;;5034131;28;20437;-77
2023/12/13 11:04:16;;;;;;;6.60;3.25;;;;;;;;;;5034315;28;20033;-77
2023/12/13 11:06:45;;;;;;;4.10;2.92;;;;;;;;;;5034689;28;20031;-78
2023/12/13 11:09:15;;;;;;;4.88;3.25;;;;;;;;;;5016067;28;20033;-78
2023/12/13 11:11:44;;;;;;;6.57;3.13;;;;;;;;;;5033550;28;20537;-78
2023/12/13 11:14:15;;;;;;;5.18;3.20;;;;;;;;;;5033601;28;20033;-78
2023/12/13 11:16:50;;;;;;;6.53;3.30;;;;;;;;;;5015816;28;20029;-77
2023/12/13 11:19:25;;;;;;;5.07;3.33;;;;;;;;;;5034414;28;20025;-77
2023/12/13 11:21:51;;;;;;;6.72;3.33;;;;;;;;;;5015574;28;20061;-77
2023/12/13 11:24:26;;;;;;;7.72;3.63;;;;;;;;;;5033867;28;20030;-78
2023/12/13 11:26:53;;;;;;;6.43;3.63;;;;;;;;;;5033753;28;20104;-77
2023/12/13 11:29:22;;;;;;;5.55;3.75;;;;;;;;;;5034748;28;20107;-77
2023/12/13 11:31:51;;;;;;;6.70;3.80;;;;;;;;;;5033320;28;20033;-77
2023/12/13 11:34:17;;;;;;;7.68;3.70;;;;;;;;;;5015491;28;20029;-79
2023/12/13 11:36:44;;;;;;;7.50;3.95;;;;;;;;;;5016890;28;20038;-79
2023/12/13 11:39:09;;;;;;;6.10;3.80;;;;;;;;;;5033670;28;20033;-78
2023/12/13 11:41:36;;;;;;;6.45;3.58;;;;;;;;;;5033815;28;20037;-78
2023/12/13 11:44:05;;;;;;;7.68;3.80;;;;;;;;;;5033204;28;20100;-77
2023/12/13 11:46:31;;;;;;;6.88;3.53;;;;;;;;;;5033985;28;20044;-77
2023/12/13 11:48:56;;;;;;;7.70;3.50;;;;;;;;;;5033071;28;20520;-78
2023/12/13 11:51:21;;;;;;;7.50;3.35;;;;;;;;;;5033148;28;20072;-77
2023/12/13 11:53:49;;;;;;;6.13;3.83;;;;;;;;;;5015614;28;20129;-77
2023/12/13 11:56:16;;;;;;;9.35;3.47;;;;;;;;;;5033793;28;20017;-78
2023/12/13 11:58:42;;;;;;;6.60;3.15;;;;;;;;;;5033608;28;20030;-77
2023/12/13 12:01:07;;;;;;;5.65;3.85;;;;;;;;;;5015782;28;20112;-77
2023/12/13 12:03:33;;;;;;;5.93;3.75;;;;;;;;;;5016595;28;20021;-77
2023/12/13 12:05:58;;;;;;;9.27;3.65;;;;;;;;;;5034337;28;20029;-79
2023/12/13 12:08:24;;;;;;;4.95;3.50;;;;;;;;;;5034252;28;20083;-78
2023/12/13 12:10:51;;;;;;;8.32;3.42;;;;;;;;;;5035113;28;20485;-79
2023/12/13 12:13:18;;;;;;;6.10;3.55;;;;;;;;;;5016423;28;20124;-79
2023/12/13 12:15:44;;;;;;;5.72;3.22;;;;;;;;;;5034045;28;20101;-78
2023/12/13 12:18:11;;;;;;;9.23;3.00;;;;;;;;;;5033845;28;20080;-77
2023/12/13 12:20:36;;;;;;;6.63;3.42;;;;;;;;;;5033693;28;20025;-78
2023/12/13 12:23:02;;;;;;;5.33;2.67;;;;;;;;;;5034998;28;20037;-78
2023/12/13 12:25:29;;;;;;;7.43;3.00;;;;;;;;;;5035278;28;20309;-79
2023/12/13 12:27:55;;;;;;;5.70;2.72;;;;;;;;;;5033795;28;20039;-78
2023/12/13 12:30:22;;;;;;;5.47;2.83;;;;;;;;;;5037858;28;20032;-78
2023/12/13 12:32:47;;;;;;;5.78;2.67;;;;;;;;;;5021799;28;20025;-78
2023/12/13 12:35:12;;;;;;;5.15;3.00;;;;;;;;;;5039059;28;20159;-78
2023/12/13 12:37:38;;;;;;;9.05;2.83;;;;;;;;;;5037474;28;20040;-78
2023/12/13 12:40:04;;;;;;;5.78;2.95;;;;;;;;;;5032553;28;20511;-76
2023/12/13 12:42:30;;;;;;;3.92;2.55;;;;;;;;;;5032125;28;20104;-75
2023/12/13 12:44:55;;;;;;;3.13;2.20;;;;;;;;;;5014669;28;20507;-76
2023/12/13 12:47:20;;;;;;;4.53;2.03;;;;;;;;;;5032298;28;20493;-75
2023/12/13 12:49:47;;;;;;;4.85;1.85;;;;;;;;;;5032730;28;20431;-75
2023/12/13 12:52:13;;;;;;;3.78;1.70;;;;;;;;;;5032650;28;20436;-76
2023/12/13 12:54:38;;;;;;;3.83;1.30;;;;;;;;;;5034620;28;20045;-76
2023/12/13 12:57:03;;;;;;;2.73;1.20;;;;;;;;;;5035838;28;20037;-76
2023/12/13 12:59:29;;;;;;;1.92;1.20;;;;;;;;;;5035994;28;20344;-75
2023/12/13 13:01:54;;;;;;;1.30;0.88;;;;;;;;;;5035637;28;20108;-75
2023/12/13 13:04:20;;;;;;;3.72;1.00;;;;;;;;;;5036822;28;20365;-78
2023/12/13 13:06:46;;;;;;;5.53;1.20;;;;;;;;;;5038672;28;20018;-78
2023/12/13 13:09:12;;;;;;;3.15;1.20;;;;;;;;;;5039683;28;20558;-78
2023/12/13 13:11:38;;;;;;;1.63;0.90;;;;;;;;;;5037666;28;20033;-78
2023/12/13 13:14:03;;;;;;;3.00;1.05;;;;;;;;;;5040472;28;20021;-79
2023/12/13 13:16:32;;;;;;;3.20;1.15;;;;;;;;;;5040534;28;20396;-78
2023/12/13 13:18:58;;;;;;;2.88;0.93;;;;;;;;;;5040430;28;20025;-78
2023/12/13 13:21:24;;;;;;;3.00;0.88;;;;;;;;;;5039088;28;20056;-78
2023/12/13 13:23:50;;;;;;;3.10;0.82;;;;;;;;;;5039950;28;20423;-78
2023/12/13 13:26:15;;;;;;;1.20;0.75;;;;;;;;;;5020454;28;20052;-78
2023/12/13 13:28:41;;;;;;;2.47;0.90;;;;;;;;;;5020974;28;20104;-78
2023/12/13 13:31:06;;;;;;;5.97;1.30;;;;;;;;;;5038238;28;20662;-79
2023/12/13 13:33:47;;;;;;;1.60;0.73;;;;;;;;;;5038215;28;20045;-78
2023/12/13 13:36:12;;;;;;;3.53;1.05;;;;;;;;;;5019475;28;20101;-79
2023/12/13 13:38:38;;;;;;;2.17;1.05;;;;;;;;;;5037914;28;20137;-78
2023/12/13 13:41:04;;;;;;;2.40;0.93;;;;;;;;;;5019070;28;20017;-79
2023/12/13 13:43:30;;;;;;;3.25;0.98;;;;;;;;;;5020994;28;20064;-78
2023/12/13 13:45:55;;;;;;;2.10;0.90;;;;;;;;;;5039428;28;20041;-78
2023/12/13 13:48:24;;;;;;;2.28;0.75;;;;;;;;;;5040057;28;20025;-78
2023/12/13 13:50:49;;;;;;;2.80;1.05;;;;;;;;;;5039851;28;20424;-78
2023/12/13 13:53:15;;;;;;;2.30;0.88;;;;;;;;;;5040677;28;20035;-79
2023/12/13 13:55:40;;;;;;;2.45;0.80;;;;;;;;;;5040268;28;20029;-78
2023/12/13 13:58:06;;;;;;;2.58;1.00;;;;;;;;;;5038294;28;20056;-78
2023/12/13 14:00:31;;;;;;;1.33;0.70;;;;;;;;;;5038614;28;20555;-78
2023/12/13 14:02:56;;;;;;;1.65;1.15;;;;;;;;;;5020846;28;20742;-77
2023/12/13 14:05:25;;;;;;;4.80;1.55;;;;;;;;;;5018866;28;20539;-79
2023/12/13 14:07:51;;;;;;;2.67;1.35;;;;;;;;;;5036771;28;20037;-77
2023/12/13 14:10:16;;;;;;;2.17;1.33;;;;;;;;;;5036283;28;20543;-79
2023/12/13 14:12:41;;;;;;;4.30;1.40;;;;;;;;;;5038571;28;20061;-78
2023/12/13 14:15:08;;;;;;;4.47;1.33;;;;;;;;;;5037828;28;20032;-79
2023/12/13 14:17:33;;;;;;;3.35;1.30;;;;;;;;;;5019759;28;20278;-77
2023/12/13 14:19:59;;;;;;;4.65;1.83;;;;;;;;;;5019566;28;20068;-77
2023/12/13 14:22:25;;;;;;;3.58;1.50;;;;;;;;;;5038262;28;20049;-77
2023/12/13 14:24:51;;;;;;;2.40;1.20;;;;;;;;;;5018678;28;20400;-78
2023/12/13 14:27:18;;;;;;;3.22;1.25;;;;;;;;;;5038212;28;20255;-77
2023/12/13 14:29:54;;;;;;;3.92;1.40;;;;;;;;;;5017971;28;20018;-77
2023/12/13 14:32:23;;;;;;;2.92;1.50;;;;;;;;;;5015796;28;20029;-79